sensor_id;sensor_type;location;lat;lon;timestamp;pressure;altitude;pressure_sealevel;temperature;humidity
74542;BME280;63015;45.378;20.360;2023-06-14T00:01:55;100406.03;;;16.63;56.81
74542;BME280;63015;45.378;20.360;2023-06-14T00:03:56;100403.41;;;16.63;56.88
74542;BME280;63015;45.378;20.360;2023-06-14T00:05:56;100408.72;;;16.61;56.81
74542;BME280;63015;45.378;20.360;2023-06-14T00:07:57;100396.47;;;16.60;56.71
74542;BME280;63015;45.378;20.360;2023-06-14T00:10:01;100397.28;;;16.62;56.49
74542;BME280;63015;45.378;20.360;2023-06-14T00:12:01;100395.56;;;16.61;56.37
74542;BME280;63015;45.378;20.360;2023-06-14T00:14:02;100403.41;;;16.64;56.39
74542;BME280;63015;45.378;20.360;2023-06-14T00:16:04;100392.94;;;16.61;56.34
74542;BME280;63015;45.378;20.360;2023-06-14T00:18:04;100398.16;;;16.63;56.16
74542;BME280;63015;45.378;20.360;2023-06-14T00:20:05;100410.44;;;16.62;56.19
74542;BME280;63015;45.378;20.360;2023-06-14T00:22:07;100412.25;;;16.60;56.32
74542;BME280;63015;45.378;20.360;2023-06-14T00:24:07;100419.19;;;16.63;55.86
74542;BME280;63015;45.378;20.360;2023-06-14T00:26:08;100413.06;;;16.62;55.91
74542;BME280;63015;45.378;20.360;2023-06-14T00:28:09;100415.81;;;16.59;56.42
74542;BME280;63015;45.378;20.360;2023-06-14T00:30:10;100415.00;;;16.55;56.10
74542;BME280;63015;45.378;20.360;2023-06-14T00:32:11;100417.69;;;16.52;56.20
74542;BME280;63015;45.378;20.360;2023-06-14T00:34:11;100411.69;;;16.47;56.73
74542;BME280;63015;45.378;20.360;2023-06-14T00:36:15;100410.00;;;16.44;56.56
74542;BME280;63015;45.378;20.360;2023-06-14T00:38:17;100408.25;;;16.45;56.52
74542;BME280;63015;45.378;20.360;2023-06-14T00:40:17;100417.00;;;16.46;56.65
74542;BME280;63015;45.378;20.360;2023-06-14T00:42:26;100406.47;;;16.46;57.04
74542;BME280;63015;45.378;20.360;2023-06-14T00:44:27;100413.56;;;16.43;56.88
74542;BME280;63015;45.378;20.360;2023-06-14T00:46:28;100415.31;;;16.43;56.88
74542;BME280;63015;45.378;20.360;2023-06-14T00:48:29;100413.63;;;16.40;57.22
74542;BME280;63015;45.378;20.360;2023-06-14T00:50:30;100420.72;;;16.38;57.34
74542;BME280;63015;45.378;20.360;2023-06-14T00:52:32;100409.44;;;16.33;57.24
74542;BME280;63015;45.378;20.360;2023-06-14T00:54:33;100408.59;;;16.31;57.38
74542;BME280;63015;45.378;20.360;2023-06-14T00:56:36;100406.81;;;16.32;57.26
74542;BME280;63015;45.378;20.360;2023-06-14T00:58:36;100403.44;;;16.28;57.28
74542;BME280;63015;45.378;20.360;2023-06-14T01:00:37;100408.75;;;16.25;57.66
74542;BME280;63015;45.378;20.360;2023-06-14T01:02:38;100409.69;;;16.22;57.53
74542;BME280;63015;45.378;20.360;2023-06-14T01:04:39;100408.94;;;16.17;58.02
74542;BME280;63015;45.378;20.360;2023-06-14T01:09:24;100402.94;;;16.12;58.12
74542;BME280;63015;45.378;20.360;2023-06-14T01:11:32;100403.91;;;16.08;59.04
74542;BME280;63015;45.378;20.360;2023-06-14T01:13:42;100406.84;;;15.94;59.56
74542;BME280;63015;45.378;20.360;2023-06-14T01:15:44;100407.88;;;15.88;59.57
74542;BME280;63015;45.378;20.360;2023-06-14T01:17:45;100408.69;;;15.92;59.05
74542;BME280;63015;45.378;20.360;2023-06-14T01:19:52;100409.50;;;15.94;58.86
74542;BME280;63015;45.378;20.360;2023-06-14T01:22:00;100413.13;;;15.88;60.18
74542;BME280;63015;45.378;20.360;2023-06-14T01:24:01;100414.06;;;15.86;60.14
74542;BME280;63015;45.378;20.360;2023-06-14T01:26:03;100407.06;;;15.85;59.88
74542;BME280;63015;45.378;20.360;2023-06-14T01:28:06;100407.03;;;15.86;59.85
74542;BME280;63015;45.378;20.360;2023-06-14T01:30:12;100401.81;;;15.85;59.81
74542;BME280;63015;45.378;20.360;2023-06-14T01:32:14;100406.28;;;15.79;60.18
74542;BME280;63015;45.378;20.360;2023-06-14T01:34:15;100404.63;;;15.75;60.29
74542;BME280;63015;45.378;20.360;2023-06-14T01:36:18;100403.78;;;15.73;60.48
74542;BME280;63015;45.378;20.360;2023-06-14T01:38:24;100406.47;;;15.72;60.82
74542;BME280;63015;45.378;20.360;2023-06-14T01:40:25;100410.84;;;15.71;60.56
74542;BME280;63015;45.378;20.360;2023-06-14T01:42:26;100404.72;;;15.71;60.60
74542;BME280;63015;45.378;20.360;2023-06-14T01:44:28;100399.56;;;15.66;60.88
74542;BME280;63015;45.378;20.360;2023-06-14T01:46:29;100403.16;;;15.62;61.17
74542;BME280;63015;45.378;20.360;2023-06-14T01:48:30;100393.53;;;15.62;61.05
74542;BME280;63015;45.378;20.360;2023-06-14T01:50:32;100399.59;;;15.65;60.81
74542;BME280;63015;45.378;20.360;2023-06-14T01:52:33;100396.19;;;15.61;61.27
74542;BME280;63015;45.378;20.360;2023-06-14T01:54:33;100396.22;;;15.59;61.38
74542;BME280;63015;45.378;20.360;2023-06-14T01:56:34;100402.41;;;15.57;61.52
74542;BME280;63015;45.378;20.360;2023-06-14T01:58:34;100391.91;;;15.57;61.54
74542;BME280;63015;45.378;20.360;2023-06-14T02:00:36;100391.94;;;15.55;61.42
74542;BME280;63015;45.378;20.360;2023-06-14T02:02:37;100390.16;;;15.56;61.62
74542;BME280;63015;45.378;20.360;2023-06-14T02:04:37;100397.19;;;15.55;61.66
74542;BME280;63015;45.378;20.360;2023-06-14T02:06:38;100398.03;;;15.56;61.51
74542;BME280;63015;45.378;20.360;2023-06-14T02:08:39;100392.78;;;15.56;61.75
74542;BME280;63015;45.378;20.360;2023-06-14T02:10:40;100397.22;;;15.54;61.69
74542;BME280;63015;45.378;20.360;2023-06-14T02:12:40;100393.75;;;15.52;62.00
74542;BME280;63015;45.378;20.360;2023-06-14T02:14:41;100398.16;;;15.51;61.79
74542;BME280;63015;45.378;20.360;2023-06-14T02:16:42;100399.00;;;15.52;61.72
74542;BME280;63015;45.378;20.360;2023-06-14T02:18:49;100392.06;;;15.49;61.92
74542;BME280;63015;45.378;20.360;2023-06-14T02:20:51;100397.28;;;15.51;61.70
74542;BME280;63015;45.378;20.360;2023-06-14T02:22:51;100401.59;;;15.53;61.71
74542;BME280;63015;45.378;20.360;2023-06-14T02:24:52;100398.03;;;15.56;61.64
74542;BME280;63015;45.378;20.360;2023-06-14T02:26:52;100403.28;;;15.57;61.69
74542;BME280;63015;45.378;20.360;2023-06-14T02:28:53;100397.09;;;15.58;61.40
74542;BME280;63015;45.378;20.360;2023-06-14T02:30:54;100395.41;;;15.56;61.97
74542;BME280;63015;45.378;20.360;2023-06-14T02:32:57;100396.28;;;15.56;61.72
74542;BME280;63015;45.378;20.360;2023-06-14T02:34:59;100396.34;;;15.53;61.76
74542;BME280;63015;45.378;20.360;2023-06-14T02:37:00;100398.16;;;15.51;61.96
74542;BME280;63015;45.378;20.360;2023-06-14T02:39:02;100398.25;;;15.46;62.71
74542;BME280;63015;45.378;20.360;2023-06-14T02:41:03;100395.63;;;15.46;61.86
74542;BME280;63015;45.378;20.360;2023-06-14T02:43:04;100393.88;;;15.45;62.37
74542;BME280;63015;45.378;20.360;2023-06-14T02:45:07;100397.34;;;15.48;61.71
74542;BME280;63015;45.378;20.360;2023-06-14T02:47:07;100392.94;;;15.48;61.80
74542;BME280;63015;45.378;20.360;2023-06-14T02:49:08;100394.69;;;15.49;62.05
74542;BME280;63015;45.378;20.360;2023-06-14T02:51:09;100391.16;;;15.50;61.99
74542;BME280;63015;45.378;20.360;2023-06-14T02:53:09;100391.94;;;15.55;61.94
74542;BME280;63015;45.378;20.360;2023-06-14T02:55:11;100395.41;;;15.57;61.78
74542;BME280;63015;45.378;20.360;2023-06-14T02:57:12;100390.91;;;15.61;61.53
74542;BME280;63015;45.378;20.360;2023-06-14T02:59:15;100396.97;;;15.65;61.42
74542;BME280;63015;45.378;20.360;2023-06-14T03:01:16;100398.66;;;15.67;61.56
74542;BME280;63015;45.378;20.360;2023-06-14T03:03:17;100405.56;;;15.71;61.37
74542;BME280;63015;45.378;20.360;2023-06-14T03:05:25;100403.78;;;15.73;61.52
74542;BME280;63015;45.378;20.360;2023-06-14T03:07:28;100403.72;;;15.76;61.68
74542;BME280;63015;45.378;20.360;2023-06-14T03:09:31;100404.56;;;15.78;61.33
74542;BME280;63015;45.378;20.360;2023-06-14T03:11:32;100401.06;;;15.78;61.63
74542;BME280;63015;45.378;20.360;2023-06-14T03:13:36;100410.66;;;15.81;61.74
74542;BME280;63015;45.378;20.360;2023-06-14T03:15:39;100421.22;;;15.77;61.80
74542;BME280;63015;45.378;20.360;2023-06-14T03:17:42;100416.13;;;15.70;62.48
74542;BME280;63015;45.378;20.360;2023-06-14T03:19:46;100431.84;;;15.31;64.85
74542;BME280;63015;45.378;20.360;2023-06-14T03:21:49;100427.97;;;14.55;68.11
74542;BME280;63015;45.378;20.360;2023-06-14T03:23:50;100428.50;;;14.77;65.78
74542;BME280;63015;45.378;20.360;2023-06-14T03:25:51;100445.44;;;14.56;68.17
74542;BME280;63015;45.378;20.360;2023-06-14T03:27:52;100430.78;;;14.42;68.63
74542;BME280;63015;45.378;20.360;2023-06-14T03:29:54;100436.16;;;14.36;68.81
74542;BME280;63015;45.378;20.360;2023-06-14T03:32:04;100441.91;;;14.58;68.01
74542;BME280;63015;45.378;20.360;2023-06-14T03:34:11;100439.50;;;14.44;68.50
74542;BME280;63015;45.378;20.360;2023-06-14T03:36:12;100446.78;;;14.28;68.98
74542;BME280;63015;45.378;20.360;2023-06-14T03:38:14;100447.66;;;14.27;69.18
74542;BME280;63015;45.378;20.360;2023-06-14T03:40:17;100448.72;;;14.14;69.88
74542;BME280;63015;45.378;20.360;2023-06-14T03:42:22;100446.78;;;14.28;68.29
74542;BME280;63015;45.378;20.360;2023-06-14T03:44:23;100453.25;;;14.59;67.18
74542;BME280;63015;45.378;20.360;2023-06-14T03:46:25;100452.34;;;14.61;67.81
74542;BME280;63015;45.378;20.360;2023-06-14T03:48:26;100450.44;;;14.73;66.96
74542;BME280;63015;45.378;20.360;2023-06-14T03:50:27;100456.31;;;14.86;66.33
74542;BME280;63015;45.378;20.360;2023-06-14T03:52:29;100448.22;;;14.96;66.31
74542;BME280;63015;45.378;20.360;2023-06-14T03:54:30;100452.69;;;14.91;66.93
74542;BME280;63015;45.378;20.360;2023-06-14T03:56:33;100456.00;;;15.46;65.38
74542;BME280;63015;45.378;20.360;2023-06-14T03:58:33;100453.63;;;16.53;63.28
74542;BME280;63015;45.378;20.360;2023-06-14T04:00:34;100445.97;;;18.58;57.89
74542;BME280;63015;45.378;20.360;2023-06-14T04:02:36;100440.78;;;20.02;53.83
74542;BME280;63015;45.378;20.360;2023-06-14T04:04:37;100441.25;;;20.12;52.46
74542;BME280;63015;45.378;20.360;2023-06-14T04:06:39;100443.97;;;20.75;51.48
74542;BME280;63015;45.378;20.360;2023-06-14T04:08:41;100446.94;;;20.45;51.39
74542;BME280;63015;45.378;20.360;2023-06-14T04:10:42;100452.31;;;20.21;52.75
74542;BME280;63015;45.378;20.360;2023-06-14T04:12:43;100449.84;;;19.49;52.28
74542;BME280;63015;45.378;20.360;2023-06-14T04:14:43;100454.91;;;18.54;55.36
74542;BME280;63015;45.378;20.360;2023-06-14T04:16:46;100460.50;;;17.86;56.92
74542;BME280;63015;45.378;20.360;2023-06-14T04:18:48;100458.56;;;17.63;57.57
74542;BME280;63015;45.378;20.360;2023-06-14T04:20:52;100457.59;;;17.97;57.45
74542;BME280;63015;45.378;20.360;2023-06-14T04:22:56;100465.75;;;17.58;58.13
74542;BME280;63015;45.378;20.360;2023-06-14T04:24:57;100461.22;;;17.63;58.08
74542;BME280;63015;45.378;20.360;2023-06-14T04:27:00;100467.03;;;17.45;59.04
74542;BME280;63015;45.378;20.360;2023-06-14T04:29:05;100469.59;;;18.07;57.77
74542;BME280;63015;45.378;20.360;2023-06-14T04:31:12;100473.50;;;18.22;57.23
74542;BME280;63015;45.378;20.360;2023-06-14T04:33:13;100472.59;;;18.23;56.87
74542;BME280;63015;45.378;20.360;2023-06-14T04:35:15;100479.72;;;18.20;57.10
74542;BME280;63015;45.378;20.360;2023-06-14T04:37:18;100479.22;;;18.37;57.68
74542;BME280;63015;45.378;20.360;2023-06-14T04:39:20;100469.97;;;18.77;56.46
74542;BME280;63015;45.378;20.360;2023-06-14T04:41:23;100471.94;;;18.44;56.55
74542;BME280;63015;45.378;20.360;2023-06-14T04:43:31;100476.41;;;18.68;56.58
74542;BME280;63015;45.378;20.360;2023-06-14T04:45:38;100475.19;;;19.29;55.88
74542;BME280;63015;45.378;20.360;2023-06-14T04:47:40;100477.09;;;19.73;54.56
74542;BME280;63015;45.378;20.360;2023-06-14T04:49:42;100477.59;;;19.84;54.25
74542;BME280;63015;45.378;20.360;2023-06-14T04:51:44;100476.22;;;19.98;53.99
74542;BME280;63015;45.378;20.360;2023-06-14T04:53:46;100474.84;;;20.10;53.46
74542;BME280;63015;45.378;20.360;2023-06-14T04:55:47;100478.28;;;19.90;53.88
74542;BME280;63015;45.378;20.360;2023-06-14T04:57:48;100489.59;;;20.37;53.35
74542;BME280;63015;45.378;20.360;2023-06-14T04:59:49;100485.47;;;20.75;52.69
74542;BME280;63015;45.378;20.360;2023-06-14T05:01:55;100483.28;;;20.84;51.63
74542;BME280;63015;45.378;20.360;2023-06-14T05:03:58;100478.84;;;20.85;51.96
74542;BME280;63015;45.378;20.360;2023-06-14T05:06:01;100473.22;;;20.93;52.21
74542;BME280;63015;45.378;20.360;2023-06-14T05:08:02;100477.88;;;20.65;52.27
74542;BME280;63015;45.378;20.360;2023-06-14T05:10:03;100478.31;;;20.97;51.53
74542;BME280;63015;45.378;20.360;2023-06-14T05:12:04;100476.44;;;20.79;52.20
74542;BME280;63015;45.378;20.360;2023-06-14T05:14:05;100475.59;;;20.99;52.01
74542;BME280;63015;45.378;20.360;2023-06-14T05:16:06;100483.47;;;21.21;51.50
74542;BME280;63015;45.378;20.360;2023-06-14T05:18:10;100491.31;;;21.64;50.56
74542;BME280;63015;45.378;20.360;2023-06-14T05:20:10;100492.47;;;21.96;49.45
74542;BME280;63015;45.378;20.360;2023-06-14T05:22:11;100493.09;;;22.21;49.29
74542;BME280;63015;45.378;20.360;2023-06-14T05:24:12;100487.72;;;22.03;48.79
74542;BME280;63015;45.378;20.360;2023-06-14T05:26:13;100474.97;;;21.92;48.80
74542;BME280;63015;45.378;20.360;2023-06-14T05:28:13;100478.13;;;21.81;48.92
74542;BME280;63015;45.378;20.360;2023-06-14T05:30:16;100480.28;;;21.92;48.81
74542;BME280;63015;45.378;20.360;2023-06-14T05:32:17;100479.59;;;22.06;48.82
74542;BME280;63015;45.378;20.360;2023-06-14T05:34:17;100482.69;;;22.16;48.12
74542;BME280;63015;45.378;20.360;2023-06-14T05:36:19;100487.94;;;22.35;48.63
74542;BME280;63015;45.378;20.360;2023-06-14T05:38:19;100486.34;;;22.50;48.16
74542;BME280;63015;45.378;20.360;2023-06-14T05:40:20;100488.44;;;22.43;48.21
74542;BME280;63015;45.378;20.360;2023-06-14T05:42:21;100488.81;;;22.72;47.92
74542;BME280;63015;45.378;20.360;2023-06-14T05:44:22;100483.59;;;23.04;47.38
74542;BME280;63015;45.378;20.360;2023-06-14T05:46:23;100481.81;;;23.22;46.69
74542;BME280;63015;45.378;20.360;2023-06-14T05:48:25;100481.56;;;23.60;45.69
74542;BME280;63015;45.378;20.360;2023-06-14T05:50:26;100479.97;;;23.90;44.74
74542;BME280;63015;45.378;20.360;2023-06-14T05:52:27;100477.59;;;23.18;43.88
74542;BME280;63015;45.378;20.360;2023-06-14T05:54:28;100478.94;;;22.92;45.32
74542;BME280;63015;45.378;20.360;2023-06-14T05:56:29;100483.91;;;23.33;44.98
74542;BME280;63015;45.378;20.360;2023-06-14T05:58:30;100474.78;;;23.71;44.61
74542;BME280;63015;45.378;20.360;2023-06-14T06:00:31;100477.53;;;23.69;44.18
74542;BME280;63015;45.378;20.360;2023-06-14T06:02:31;100476.13;;;24.11;42.97
74542;BME280;63015;45.378;20.360;2023-06-14T06:04:32;100478.81;;;23.62;43.19
74542;BME280;63015;45.378;20.360;2023-06-14T06:06:32;100481.16;;;23.68;44.25
74542;BME280;63015;45.378;20.360;2023-06-14T06:08:33;100483.34;;;23.44;44.67
74542;BME280;63015;45.378;20.360;2023-06-14T06:10:34;100485.09;;;23.77;43.17
74542;BME280;63015;45.378;20.360;2023-06-14T06:12:34;100485.84;;;24.43;42.39
74542;BME280;63015;45.378;20.360;2023-06-14T06:14:35;100484.78;;;23.99;43.04
74542;BME280;63015;45.378;20.360;2023-06-14T06:16:36;100490.47;;;24.09;41.47
74542;BME280;63015;45.378;20.360;2023-06-14T06:18:37;100495.88;;;23.91;41.73
74542;BME280;63015;45.378;20.360;2023-06-14T06:20:38;100496.09;;;23.87;42.81
74542;BME280;63015;45.378;20.360;2023-06-14T06:22:38;100498.84;;;23.69;42.43
74542;BME280;63015;45.378;20.360;2023-06-14T06:24:39;100495.09;;;23.89;42.89
74542;BME280;63015;45.378;20.360;2023-06-14T06:26:40;100499.50;;;24.53;42.51
74542;BME280;63015;45.378;20.360;2023-06-14T06:28:40;100495.59;;;25.19;40.69
74542;BME280;63015;45.378;20.360;2023-06-14T06:30:41;100493.16;;;25.45;40.07
74542;BME280;63015;45.378;20.360;2023-06-14T06:32:42;100501.25;;;24.84;40.12
74542;BME280;63015;45.378;20.360;2023-06-14T06:34:43;100492.06;;;25.04;38.77
74542;BME280;63015;45.378;20.360;2023-06-14T06:36:44;100486.75;;;25.33;39.75
74542;BME280;63015;45.378;20.360;2023-06-14T06:38:45;100494.44;;;25.81;38.28
74542;BME280;63015;45.378;20.360;2023-06-14T06:40:45;100496.16;;;25.82;38.29
74542;BME280;63015;45.378;20.360;2023-06-14T06:42:48;100502.63;;;26.07;38.22
74542;BME280;63015;45.378;20.360;2023-06-14T06:44:52;100502.06;;;25.87;38.48
74542;BME280;63015;45.378;20.360;2023-06-14T06:46:53;100497.03;;;25.83;38.15
74542;BME280;63015;45.378;20.360;2023-06-14T06:48:53;100502.63;;;25.92;36.86
74542;BME280;63015;45.378;20.360;2023-06-14T06:50:54;100504.22;;;25.39;37.15
74542;BME280;63015;45.378;20.360;2023-06-14T06:52:55;100501.56;;;25.39;36.43
74542;BME280;63015;45.378;20.360;2023-06-14T06:54:56;100508.94;;;25.34;36.96
74542;BME280;63015;45.378;20.360;2023-06-14T06:56:57;100503.25;;;25.69;36.73
74542;BME280;63015;45.378;20.360;2023-06-14T06:58:58;100499.34;;;25.46;36.05
74542;BME280;63015;45.378;20.360;2023-06-14T07:00:59;100506.41;;;25.61;35.65
74542;BME280;63015;45.378;20.360;2023-06-14T07:03:00;100502.13;;;25.58;36.03
74542;BME280;63015;45.378;20.360;2023-06-14T07:05:00;100503.28;;;25.96;35.26
74542;BME280;63015;45.378;20.360;2023-06-14T07:07:01;100501.97;;;25.89;35.46
74542;BME280;63015;45.378;20.360;2023-06-14T07:09:02;100500.78;;;26.22;34.78
74542;BME280;63015;45.378;20.360;2023-06-14T07:11:05;100502.59;;;26.49;34.33
74542;BME280;63015;45.378;20.360;2023-06-14T07:13:06;100506.34;;;26.59;34.26
74542;BME280;63015;45.378;20.360;2023-06-14T07:15:07;100493.41;;;27.06;33.88
74542;BME280;63015;45.378;20.360;2023-06-14T07:17:09;100489.56;;;26.97;33.44
74542;BME280;63015;45.378;20.360;2023-06-14T07:19:11;100488.69;;;26.97;32.03
74542;BME280;63015;45.378;20.360;2023-06-14T07:21:11;100507.56;;;26.68;33.24
74542;BME280;63015;45.378;20.360;2023-06-14T07:23:12;100496.28;;;26.90;33.36
74542;BME280;63015;45.378;20.360;2023-06-14T07:25:13;100495.88;;;27.35;33.04
74542;BME280;63015;45.378;20.360;2023-06-14T07:27:14;100515.28;;;27.38;31.99
74542;BME280;63015;45.378;20.360;2023-06-14T07:29:15;100512.78;;;27.35;32.13
74542;BME280;63015;45.378;20.360;2023-06-14T07:31:16;100509.69;;;27.29;32.42
74542;BME280;63015;45.378;20.360;2023-06-14T07:33:19;100511.19;;;27.20;32.43
74542;BME280;63015;45.378;20.360;2023-06-14T07:35:20;100513.31;;;27.53;31.74
74542;BME280;63015;45.378;20.360;2023-06-14T07:37:20;62370.56;;;-146.38;100.00
74542;BME280;63015;45.378;20.360;2023-06-14T07:39:21;62370.56;;;-146.38;100.00
74542;BME280;63015;45.378;20.360;2023-06-14T07:41:22;62370.56;;;-146.38;100.00
74542;BME280;63015;45.378;20.360;2023-06-14T07:43:23;62370.56;;;-146.38;100.00
74542;BME280;63015;45.378;20.360;2023-06-14T07:45:23;62370.56;;;-146.38;100.00
74542;BME280;63015;45.378;20.360;2023-06-14T07:47:24;62370.56;;;-146.38;100.00
74542;BME280;63015;45.378;20.360;2023-06-14T07:49:26;62370.56;;;-146.38;100.00
74542;BME280;63015;45.378;20.360;2023-06-14T07:51:26;62370.56;;;-146.38;100.00
74542;BME280;63015;45.378;20.360;2023-06-14T07:53:28;62370.56;;;-146.38;100.00
74542;BME280;63015;45.378;20.360;2023-06-14T07:55:28;62370.56;;;-146.38;100.00
74542;BME280;63015;45.378;20.360;2023-06-14T07:57:29;62370.56;;;-146.38;100.00
74542;BME280;63015;45.378;20.360;2023-06-14T07:59:30;62370.56;;;-146.38;100.00
74542;BME280;63015;45.378;20.360;2023-06-14T08:01:34;62370.56;;;-146.38;100.00
74542;BME280;63015;45.378;20.360;2023-06-14T08:03:35;62370.56;;;-146.38;100.00
74542;BME280;63015;45.378;20.360;2023-06-14T08:05:35;62370.56;;;-146.38;100.00
74542;BME280;63015;45.378;20.360;2023-06-14T08:07:37;62370.56;;;-146.38;100.00
74542;BME280;63015;45.378;20.360;2023-06-14T08:09:37;62370.56;;;-146.38;100.00
74542;BME280;63015;45.378;20.360;2023-06-14T08:11:38;62370.56;;;-146.38;100.00
74542;BME280;63015;45.378;20.360;2023-06-14T08:13:39;62370.56;;;-146.38;100.00
74542;BME280;63015;45.378;20.360;2023-06-14T08:15:39;62370.56;;;-146.38;100.00
74542;BME280;63015;45.378;20.360;2023-06-14T08:17:40;62370.56;;;-146.38;100.00
74542;BME280;63015;45.378;20.360;2023-06-14T08:19:40;62370.56;;;-146.38;100.00
74542;BME280;63015;45.378;20.360;2023-06-14T08:21:41;62370.56;;;-146.38;100.00
74542;BME280;63015;45.378;20.360;2023-06-14T08:23:42;62370.56;;;-146.38;100.00
74542;BME280;63015;45.378;20.360;2023-06-14T08:25:45;62370.56;;;-146.38;100.00
74542;BME280;63015;45.378;20.360;2023-06-14T08:27:46;62370.56;;;-146.38;100.00
74542;BME280;63015;45.378;20.360;2023-06-14T08:29:46;62370.56;;;-146.38;100.00
74542;BME280;63015;45.378;20.360;2023-06-14T08:31:47;62370.56;;;-146.38;100.00
74542;BME280;63015;45.378;20.360;2023-06-14T08:33:48;62370.56;;;-146.38;100.00
74542;BME280;63015;45.378;20.360;2023-06-14T08:35:48;62370.56;;;-146.38;100.00
74542;BME280;63015;45.378;20.360;2023-06-14T08:37:49;62370.56;;;-146.38;100.00
74542;BME280;63015;45.378;20.360;2023-06-14T08:39:50;62370.56;;;-146.38;100.00
74542;BME280;63015;45.378;20.360;2023-06-14T08:41:52;62370.56;;;-146.38;100.00
74542;BME280;63015;45.378;20.360;2023-06-14T08:43:53;62370.56;;;-146.38;100.00
74542;BME280;63015;45.378;20.360;2023-06-14T08:45:58;62370.56;;;-146.38;100.00
74542;BME280;63015;45.378;20.360;2023-06-14T08:47:59;62370.56;;;-146.38;100.00
74542;BME280;63015;45.378;20.360;2023-06-14T08:50:00;62370.56;;;-146.38;100.00
74542;BME280;63015;45.378;20.360;2023-06-14T08:52:01;62370.56;;;-146.38;100.00
74542;BME280;63015;45.378;20.360;2023-06-14T08:54:02;62370.56;;;-146.38;100.00
74542;BME280;63015;45.378;20.360;2023-06-14T08:56:05;62370.56;;;-146.38;100.00
74542;BME280;63015;45.378;20.360;2023-06-14T08:58:05;62370.56;;;-146.38;100.00
74542;BME280;63015;45.378;20.360;2023-06-14T09:00:07;62370.56;;;-146.38;100.00
74542;BME280;63015;45.378;20.360;2023-06-14T09:02:13;62370.56;;;-146.38;100.00
74542;BME280;63015;45.378;20.360;2023-06-14T09:04:15;62370.56;;;-146.38;100.00
74542;BME280;63015;45.378;20.360;2023-06-14T09:06:16;62370.56;;;-146.38;100.00
74542;BME280;63015;45.378;20.360;2023-06-14T09:08:18;62370.56;;;-146.38;100.00
74542;BME280;63015;45.378;20.360;2023-06-14T09:10:22;62370.56;;;-146.38;100.00
74542;BME280;63015;45.378;20.360;2023-06-14T09:12:23;62370.56;;;-146.38;100.00
74542;BME280;63015;45.378;20.360;2023-06-14T09:14:24;62370.56;;;-146.38;100.00
74542;BME280;63015;45.378;20.360;2023-06-14T09:16:25;62370.56;;;-146.38;100.00
74542;BME280;63015;45.378;20.360;2023-06-14T09:18:38;62370.56;;;-146.38;100.00
74542;BME280;63015;45.378;20.360;2023-06-14T09:20:40;62370.56;;;-146.38;100.00
74542;BME280;63015;45.378;20.360;2023-06-14T09:22:41;62370.56;;;-146.38;100.00
74542;BME280;63015;45.378;20.360;2023-06-14T09:24:49;62370.56;;;-146.38;100.00
74542;BME280;63015;45.378;20.360;2023-06-14T09:26:53;62370.56;;;-146.38;100.00
74542;BME280;63015;45.378;20.360;2023-06-14T09:28:54;62370.56;;;-146.38;100.00
74542;BME280;63015;45.378;20.360;2023-06-14T09:30:56;62370.56;;;-146.38;100.00
74542;BME280;63015;45.378;20.360;2023-06-14T09:32:56;62370.56;;;-146.38;100.00
74542;BME280;63015;45.378;20.360;2023-06-14T09:34:57;62370.56;;;-146.38;100.00
74542;BME280;63015;45.378;20.360;2023-06-14T09:36:58;62370.56;;;-146.38;100.00
74542;BME280;63015;45.378;20.360;2023-06-14T09:39:00;62370.56;;;-146.38;100.00
74542;BME280;63015;45.378;20.360;2023-06-14T09:41:05;62370.56;;;-146.38;100.00
74542;BME280;63015;45.378;20.360;2023-06-14T09:43:06;62370.56;;;-146.38;100.00
74542;BME280;63015;45.378;20.360;2023-06-14T09:45:10;62370.56;;;-146.38;100.00
74542;BME280;63015;45.378;20.360;2023-06-14T09:47:12;62370.56;;;-146.38;100.00
74542;BME280;63015;45.378;20.360;2023-06-14T09:49:13;62370.56;;;-146.38;100.00
74542;BME280;63015;45.378;20.360;2023-06-14T09:51:17;62370.56;;;-146.38;100.00
74542;BME280;63015;45.378;20.360;2023-06-14T09:53:21;62370.56;;;-146.38;100.00
74542;BME280;63015;45.378;20.360;2023-06-14T09:55:24;62370.56;;;-146.38;100.00
74542;BME280;63015;45.378;20.360;2023-06-14T09:57:27;62370.56;;;-146.38;100.00
74542;BME280;63015;45.378;20.360;2023-06-14T09:59:32;62370.56;;;-146.38;100.00
74542;BME280;63015;45.378;20.360;2023-06-14T10:01:34;62370.56;;;-146.38;100.00
74542;BME280;63015;45.378;20.360;2023-06-14T10:03:35;62370.56;;;-146.38;100.00
74542;BME280;63015;45.378;20.360;2023-06-14T10:05:39;62370.56;;;-146.38;100.00
74542;BME280;63015;45.378;20.360;2023-06-14T10:09:47;62370.56;;;-146.38;100.00
74542;BME280;63015;45.378;20.360;2023-06-14T10:11:50;62370.56;;;-146.38;100.00
74542;BME280;63015;45.378;20.360;2023-06-14T10:13:51;62370.56;;;-146.38;100.00
74542;BME280;63015;45.378;20.360;2023-06-14T10:16:20;62370.56;;;-146.38;100.00
74542;BME280;63015;45.378;20.360;2023-06-14T10:20:56;62370.56;;;-146.38;100.00
74542;BME280;63015;45.378;20.360;2023-06-14T10:23:08;62370.56;;;-146.38;100.00
74542;BME280;63015;45.378;20.360;2023-06-14T10:25:29;62370.56;;;-146.38;100.00
74542;BME280;63015;45.378;20.360;2023-06-14T10:27:30;62370.56;;;-146.38;100.00
74542;BME280;63015;45.378;20.360;2023-06-14T10:29:31;62370.56;;;-146.38;100.00
74542;BME280;63015;45.378;20.360;2023-06-14T10:31:48;62370.56;;;-146.38;100.00
74542;BME280;63015;45.378;20.360;2023-06-14T10:33:55;62370.56;;;-146.38;100.00